createdAt,value
2023-08-03T00:01:29.207Z,100118.75
2023-08-03T00:04:02.264Z,100114.38
2023-08-03T00:06:34.086Z,100130.88
2023-08-03T00:09:05.433Z,100136.06
2023-08-03T00:11:39.893Z,100136.06
2023-08-03T00:14:08.517Z,100132.56
2023-08-03T00:16:38.753Z,100145.59
2023-08-03T00:19:08.063Z,100143.84
2023-08-03T00:21:40.454Z,100153.38
2023-08-03T00:24:09.193Z,100155.13
2023-08-03T00:26:42.487Z,100152.53
2023-08-03T00:29:10.880Z,100162.88
2023-08-03T00:31:40.222Z,100156.84
2023-08-03T00:34:09.113Z,100159.47
2023-08-03T00:36:42.797Z,100174.22
2023-08-03T00:39:11.758Z,100169.06
2023-08-03T00:41:45.126Z,100181.16
2023-08-03T00:44:16.352Z,100179.44
2023-08-03T00:46:44.669Z,100188.97
2023-08-03T00:49:15.576Z,100190.69
2023-08-03T00:51:44.516Z,100190.69
2023-08-03T00:54:18.312Z,100193.28
2023-08-03T00:56:49.709Z,100196.78
2023-08-03T00:59:18.327Z,100195.06
2023-08-03T01:01:59.829Z,100201.97
2023-08-03T01:04:29.436Z,100202.91
2023-08-03T01:07:06.364Z,100200.28
2023-08-03T01:09:36.220Z,100202.91
2023-08-03T01:12:07.375Z,100207.25
2023-08-03T01:14:35.925Z,100209.03
2023-08-03T01:17:05.061Z,100211.66
2023-08-03T01:19:36.164Z,100215.13
2023-08-03T01:22:05.265Z,100210.84
2023-08-03T01:24:36.903Z,100219.53
2023-08-03T01:27:06.576Z,100221.25
2023-08-03T01:29:35.884Z,100228.19
2023-08-03T01:32:06.646Z,100223.91
2023-08-03T01:34:38.620Z,100227.38
2023-08-03T01:37:14.688Z,100233.44
2023-08-03T01:39:48.421Z,100234.34
2023-08-03T01:42:17.676Z,100236.09
2023-08-03T01:44:49.666Z,100245.63
2023-08-03T01:47:26.348Z,100242.19
2023-08-03T01:49:56.439Z,100248.25
2023-08-03T01:52:25.017Z,100247.41
2023-08-03T01:54:57.551Z,100243.97
2023-08-03T01:57:26.579Z,100258.69
2023-08-03T01:59:57.634Z,100254.38
2023-08-03T02:02:25.912Z,100259.59
2023-08-03T02:04:54.428Z,100259.59
2023-08-03T02:07:44.362Z,100270.00
2023-08-03T02:10:14.961Z,100274.38
2023-08-03T02:12:44.695Z,100277.00
2023-08-03T02:15:14.060Z,100276.16
2023-08-03T02:17:45.382Z,100283.09
2023-08-03T02:20:15.143Z,100295.19
2023-08-03T02:22:51.002Z,100290.91
2023-08-03T02:25:25.423Z,100296.09
2023-08-03T02:27:54.064Z,100294.38
2023-08-03T02:30:23.635Z,100303.03
2023-08-03T02:32:54.686Z,100288.34
2023-08-03T02:35:27.585Z,100299.59
2023-08-03T02:37:57.556Z,100305.72
2023-08-03T02:40:27.243Z,100310.03
2023-08-03T02:42:55.449Z,100306.59
2023-08-03T02:45:27.785Z,100316.13
2023-08-03T02:47:56.868Z,100316.16
2023-08-03T02:50:26.315Z,100312.72
2023-08-03T02:52:59.290Z,100319.66
2023-08-03T02:55:29.370Z,100318.81
2023-08-03T02:57:58.171Z,100325.72
2023-08-03T03:00:29.405Z,100321.44
2023-08-03T03:02:57.915Z,100329.22
2023-08-03T03:05:26.990Z,100336.13
2023-08-03T03:07:59.164Z,100333.56
2023-08-03T03:10:28.923Z,100338.78
2023-08-03T03:12:57.367Z,100344.84
2023-08-03T03:15:30.535Z,100343.16
2023-08-03T03:18:01.085Z,100351.78
2023-08-03T03:20:33.562Z,100357.81
2023-08-03T03:23:02.803Z,100354.38
2023-08-03T03:25:32.662Z,100366.47
2023-08-03T03:28:06.077Z,100368.22
2023-08-03T03:30:36.186Z,100367.38
2023-08-03T03:33:05.220Z,100369.06
2023-08-03T03:35:37.260Z,100375.13
2023-08-03T03:38:06.680Z,100380.31
2023-08-03T03:40:38.705Z,100379.44
2023-08-03T03:43:07.120Z,100382.03
2023-08-03T03:45:36.091Z,100399.31
2023-08-03T03:48:05.908Z,100400.19
2023-08-03T03:50:34.997Z,100403.66
2023-08-03T03:53:03.522Z,100403.66
2023-08-03T03:55:33.753Z,100412.28
2023-08-03T03:58:04.095Z,100416.59
2023-08-03T04:00:36.070Z,100419.22
2023-08-03T04:03:04.798Z,100427.84
2023-08-03T04:05:37.778Z,100433.91
2023-08-03T04:08:06.757Z,100429.56
2023-08-03T04:10:36.734Z,100439.06
2023-08-03T04:13:06.574Z,100437.34
2023-08-03T04:15:35.294Z,100440.78
2023-08-03T04:18:06.765Z,100447.69
2023-08-03T04:20:37.454Z,100456.28
2023-08-03T04:23:06.108Z,100460.59
2023-08-03T04:25:34.976Z,100463.22
2023-08-03T04:28:16.753Z,100464.91
2023-08-03T04:30:47.898Z,100469.25
2023-08-03T04:33:17.531Z,100470.09
2023-08-03T04:35:45.973Z,100468.38
2023-08-03T04:38:16.642Z,100473.59
2023-08-03T04:40:47.727Z,100478.72
2023-08-03T04:43:17.110Z,100483.91
2023-08-03T04:45:47.589Z,100489.94
2023-08-03T04:48:19.857Z,100491.69
2023-08-03T04:50:50.044Z,100484.75
2023-08-03T04:53:20.811Z,100490.78
2023-08-03T04:55:49.514Z,100498.59
2023-08-03T04:58:17.866Z,100499.47
2023-08-03T05:00:49.892Z,100502.06
2023-08-03T05:03:18.575Z,100503.81
2023-08-03T05:05:49.142Z,100516.75
2023-08-03T05:08:17.507Z,100505.53
2023-08-03T05:10:48.046Z,100514.16
2023-08-03T05:13:18.663Z,100508.94
2023-08-03T05:15:50.775Z,100507.22
2023-08-03T05:18:18.962Z,100512.41
2023-08-03T05:20:48.779Z,100524.50
2023-08-03T05:23:17.097Z,100527.09
2023-08-03T05:25:45.349Z,100537.47
2023-08-03T05:28:14.448Z,100538.34
2023-08-03T05:30:42.855Z,100531.50
2023-08-03T05:33:12.586Z,100532.38
2023-08-03T05:35:41.227Z,100538.44
2023-08-03T05:38:09.810Z,100541.91
2023-08-03T05:40:42.698Z,100544.56
2023-08-03T05:43:12.686Z,100549.75
2023-08-03T05:45:45.039Z,100548.88
2023-08-03T05:48:17.752Z,100561.84
2023-08-03T05:50:49.606Z,100555.81
2023-08-03T05:53:22.643Z,100567.88
2023-08-03T05:56:01.597Z,100568.75
2023-08-03T05:58:41.050Z,100575.69
2023-08-03T06:01:13.006Z,100570.47
2023-08-03T06:03:45.727Z,100575.66
2023-08-03T06:06:18.131Z,100581.66
2023-08-03T06:08:49.248Z,100576.38
2023-08-03T06:11:26.920Z,100577.25
2023-08-03T06:13:57.931Z,100593.69
2023-08-03T06:16:27.726Z,100595.41
2023-08-03T06:19:00.355Z,100604.06
2023-08-03T06:21:30.002Z,100609.28
2023-08-03T06:24:01.819Z,100604.06
2023-08-03T06:26:33.783Z,100610.09
2023-08-03T06:29:03.705Z,100614.41
2023-08-03T06:31:37.035Z,100616.91
2023-08-03T06:34:06.738Z,100614.22
2023-08-03T06:36:38.253Z,100624.53
2023-08-03T06:39:07.597Z,100625.31
2023-08-03T06:41:38.374Z,100633.94
2023-08-03T06:44:11.837Z,100640.78
2023-08-03T06:46:41.367Z,100639.72
2023-08-03T06:49:13.321Z,100643.16
2023-08-03T06:51:42.693Z,100643.19
2023-08-03T06:54:13.183Z,100657.16
2023-08-03T06:56:42.942Z,100657.97
2023-08-03T06:59:13.975Z,100664.88
2023-08-03T07:01:43.085Z,100660.44
2023-08-03T07:04:12.845Z,100676.78
2023-08-03T07:18:06.230Z,100699.28
2023-08-03T07:20:35.539Z,100701.22
2023-08-03T07:23:03.859Z,100700.53
2023-08-03T07:25:34.747Z,100705.81
2023-08-03T07:28:04.449Z,100701.47
2023-08-03T07:30:33.232Z,100716.25
2023-08-03T07:33:01.590Z,100706.69
2023-08-03T07:35:31.094Z,100712.81
2023-08-03T07:37:59.356Z,100725.00
2023-08-03T07:40:27.553Z,100723.34
2023-08-03T07:42:55.788Z,100726.00
2023-08-03T07:47:55.161Z,100731.34
2023-08-03T07:50:23.784Z,100735.59
2023-08-03T07:52:53.310Z,100736.41
2023-08-03T07:55:21.725Z,100735.53
2023-08-03T07:57:49.885Z,100735.47
2023-08-03T08:00:18.245Z,100732.78
2023-08-03T08:02:46.439Z,100740.47
2023-08-03T08:05:14.810Z,100753.34
2023-08-03T08:07:43.011Z,100749.69
2023-08-03T08:10:13.096Z,100756.47
2023-08-03T08:12:41.184Z,100757.22
2023-08-03T08:15:09.779Z,100766.88
2023-08-03T08:17:38.160Z,100769.63
2023-08-03T08:20:07.432Z,100777.47
2023-08-03T08:22:36.916Z,100775.81
2023-08-03T08:25:05.561Z,100785.41
2023-08-03T08:27:35.442Z,100796.72
2023-08-03T08:30:03.560Z,100795.94
2023-08-03T08:32:31.807Z,100796.75
2023-08-03T08:35:00.049Z,100794.03
2023-08-03T08:37:30.429Z,100807.84
2023-08-03T08:39:59.798Z,100790.38
2023-08-03T08:42:30.055Z,100794.56
2023-08-03T08:44:59.691Z,100798.00
2023-08-03T08:47:28.026Z,100809.38
2023-08-03T08:52:28.724Z,100828.59
2023-08-03T09:00:53.611Z,100837.09
2023-08-03T09:03:21.992Z,100835.50
2023-08-03T09:08:49.104Z,100839.66
2023-08-03T09:11:17.371Z,100838.84
2023-08-03T09:13:50.862Z,100834.66
2023-08-03T09:16:28.110Z,100834.66
2023-08-03T09:18:56.341Z,100836.06
2023-08-03T09:29:03.089Z,100833.44
2023-08-03T09:31:33.341Z,100832.88
2023-08-03T09:34:02.589Z,100836.53
2023-08-03T09:36:32.024Z,100847.66
2023-08-03T09:44:19.517Z,100845.63
2023-08-03T09:46:51.069Z,100857.19
2023-08-03T09:49:19.478Z,100859.09
2023-08-03T09:54:30.490Z,100867.13
2023-08-03T09:59:38.342Z,100870.66
2023-08-03T10:02:11.976Z,100868.59
2023-08-03T10:04:44.140Z,100877.53
2023-08-03T10:07:16.985Z,100873.91
2023-08-03T10:09:49.063Z,100879.09
2023-08-03T10:12:20.703Z,100869.97
2023-08-03T10:14:52.912Z,100866.91
2023-08-03T10:17:24.116Z,100882.66
2023-08-03T10:19:53.973Z,100886.53
2023-08-03T10:22:22.166Z,100884.97
2023-08-03T10:25:17.389Z,100891.19
2023-08-03T10:28:12.599Z,100888.53
2023-08-03T10:31:12.435Z,100884.41
2023-08-03T10:34:07.052Z,100892.88
2023-08-03T10:36:51.089Z,100907.41
2023-08-03T10:39:53.974Z,100906.81
2023-08-03T10:42:28.049Z,100907.25
2023-08-03T10:44:57.491Z,100910.91
2023-08-03T10:47:29.197Z,100920.75
2023-08-03T10:50:01.559Z,100923.66
2023-08-03T10:52:31.878Z,100920.88
2023-08-03T10:55:23.722Z,100919.22
2023-08-03T10:57:52.429Z,100936.41
2023-08-03T11:00:20.685Z,100933.56
2023-08-03T11:02:49.257Z,100940.19
2023-08-03T11:05:20.087Z,100942.72
2023-08-03T11:07:49.332Z,100935.88
2023-08-03T11:10:18.836Z,100939.53
2023-08-03T11:12:47.728Z,100942.53
2023-08-03T11:15:19.635Z,100952.53
2023-08-03T11:17:50.490Z,100959.78
2023-08-03T11:20:22.103Z,100953.47
2023-08-03T11:22:50.382Z,100956.53
2023-08-03T11:25:21.476Z,100963.69
2023-08-03T11:27:49.761Z,100963.78
2023-08-03T11:30:22.016Z,100962.56
2023-08-03T11:32:50.478Z,100966.66
2023-08-03T11:35:19.980Z,100967.91
2023-08-03T11:37:48.238Z,100967.97
2023-08-03T11:40:17.776Z,100967.56
2023-08-03T11:42:47.501Z,100973.44
2023-08-03T11:45:15.698Z,100964.66
2023-08-03T11:47:45.687Z,100976.06
2023-08-03T11:50:13.942Z,100973.44
2023-08-03T11:52:43.713Z,100982.28
2023-08-03T11:55:26.422Z,101000.72
2023-08-03T11:58:12.607Z,100995.38
2023-08-03T12:00:41.177Z,100998.22
2023-08-03T12:03:11.951Z,101003.97
2023-08-03T12:06:00.343Z,100999.44
2023-08-03T12:08:44.455Z,100999.91
2023-08-03T12:11:15.806Z,100996.47
2023-08-03T12:16:17.796Z,101012.03
2023-08-03T12:18:46.010Z,101013.00
2023-08-03T12:21:14.461Z,101021.19
2023-08-03T12:23:43.962Z,101019.72
2023-08-03T12:26:12.276Z,101020.56
2023-08-03T12:28:40.368Z,101015.38
2023-08-03T12:31:08.578Z,101022.16
2023-08-03T12:33:39.396Z,101023.59
2023-08-03T12:36:07.574Z,101023.22
2023-08-03T12:38:35.785Z,101034.88
2023-08-03T12:41:06.070Z,101030.78
2023-08-03T12:43:34.884Z,101025.63
2023-08-03T12:46:03.253Z,101026.81
2023-08-03T12:48:31.599Z,101014.38
2023-08-03T12:51:00.274Z,101023.88
2023-08-03T12:53:29.029Z,101039.22
2023-08-03T12:55:57.280Z,101035.59
2023-08-03T12:58:26.840Z,101045.72
2023-08-03T13:00:57.286Z,101042.69
2023-08-03T13:03:25.572Z,101044.47
2023-08-03T13:05:55.579Z,101050.22
2023-08-03T13:08:24.094Z,101047.22
2023-08-03T13:10:52.467Z,101047.16
2023-08-03T13:13:20.646Z,101043.63
2023-08-03T13:15:51.006Z,101047.19
2023-08-03T13:18:19.813Z,101055.66
2023-08-03T13:20:49.379Z,101049.13
2023-08-03T13:23:18.007Z,101062.19
2023-08-03T13:25:46.298Z,101068.25
2023-08-03T13:28:14.389Z,101073.38
2023-08-03T13:30:42.666Z,101070.44
2023-08-03T13:33:12.362Z,101077.72
2023-08-03T13:35:40.558Z,101073.41
2023-08-03T13:38:08.800Z,101074.38
2023-08-03T13:40:37.207Z,101083.81
2023-08-03T13:43:05.364Z,101089.00
2023-08-03T13:45:33.514Z,101088.94
2023-08-03T13:48:02.017Z,101098.75
2023-08-03T13:50:31.760Z,101104.09
2023-08-03T13:53:00.447Z,101103.34
2023-08-03T13:55:28.598Z,101109.38
2023-08-03T14:00:29.122Z,101103.09
2023-08-03T14:02:58.726Z,101110.31
2023-08-03T14:07:59.989Z,101110.75
2023-08-03T14:10:31.214Z,101113.59
2023-08-03T14:13:01.854Z,101099.28
2023-08-03T14:18:47.922Z,101101.34
2023-08-03T14:23:22.105Z,101114.25
2023-08-03T14:25:50.730Z,101119.00
2023-08-03T14:30:50.043Z,101114.66
2023-08-03T14:33:18.524Z,101127.00
2023-08-03T14:35:46.764Z,101107.81
2023-08-03T14:38:15.396Z,101122.16
2023-08-03T14:40:49.186Z,101115.69
2023-08-03T14:43:17.604Z,101127.88
2023-08-03T14:45:51.586Z,101135.53
2023-08-03T14:48:19.914Z,101134.06
2023-08-03T14:50:52.973Z,101129.03
2023-08-03T14:53:22.608Z,101135.63
2023-08-03T14:58:32.269Z,101147.19
2023-08-03T15:01:07.617Z,101132.91
2023-08-03T15:03:38.587Z,101137.09
2023-08-03T15:06:14.736Z,101140.97
2023-08-03T15:08:43.265Z,101142.25
2023-08-03T15:11:13.305Z,101157.41
2023-08-03T15:13:45.653Z,101160.06
2023-08-03T15:16:28.879Z,101164.69
2023-08-03T15:18:58.681Z,101171.63
2023-08-03T15:21:28.969Z,101170.19
2023-08-03T15:24:00.037Z,101168.19
2023-08-03T15:26:33.908Z,101169.78
2023-08-03T15:29:05.016Z,101163.59
2023-08-03T15:31:42.821Z,101165.81
2023-08-03T15:34:12.224Z,101159.03
2023-08-03T15:36:45.077Z,101153.69
2023-08-03T15:39:18.657Z,101153.41
2023-08-03T15:41:53.422Z,101159.75
2023-08-03T15:44:32.547Z,101157.28
2023-08-03T15:47:29.283Z,101173.88
2023-08-03T15:49:52.809Z,101171.66
2023-08-03T15:52:32.988Z,101171.00
2023-08-03T15:57:42.577Z,101184.72
2023-08-03T16:00:12.002Z,101185.00
2023-08-03T16:02:40.788Z,101182.91
2023-08-03T16:05:09.927Z,101192.06
2023-08-03T16:07:38.173Z,101202.19
2023-08-03T16:10:07.036Z,101200.63
2023-08-03T16:12:35.252Z,101195.47
2023-08-03T16:15:05.235Z,101207.38
2023-08-03T16:17:33.456Z,101210.25
2023-08-03T16:20:01.791Z,101226.09
2023-08-03T16:22:30.164Z,101215.50
2023-08-03T16:24:58.339Z,101225.84
2023-08-03T16:27:26.480Z,101222.06
2023-08-03T16:32:32.199Z,101217.00
2023-08-03T16:35:04.087Z,101224.69
2023-08-03T16:37:33.832Z,101232.63
2023-08-03T16:40:02.127Z,101238.38
2023-08-03T16:42:30.885Z,101243.53
2023-08-03T16:44:59.826Z,101257.19
2023-08-03T16:47:28.018Z,101270.41
2023-08-03T16:49:57.637Z,101275.59
2023-08-03T16:52:25.917Z,101269.38
2023-08-03T16:54:54.173Z,101271.03
2023-08-03T16:57:22.652Z,101275.38
2023-08-03T16:59:51.114Z,101282.38
2023-08-03T17:02:19.226Z,101278.00
2023-08-03T17:04:47.558Z,101284.03
2023-08-03T17:07:17.181Z,101283.63
2023-08-03T17:09:45.467Z,101298.00
2023-08-03T17:12:13.574Z,101297.81
2023-08-03T17:14:41.659Z,101297.88
2023-08-03T17:17:09.828Z,101303.34
2023-08-03T17:19:38.008Z,101320.13
2023-08-03T17:22:06.476Z,101327.28
2023-08-03T17:24:36.209Z,101321.41
2023-08-03T17:27:04.815Z,101339.78
2023-08-03T17:29:32.992Z,101337.97
2023-08-03T17:32:01.287Z,101330.97
2023-08-03T17:34:29.588Z,101338.69
2023-08-03T17:36:58.012Z,101346.50
2023-08-03T17:39:26.535Z,101344.66
2023-08-03T17:41:56.730Z,101343.84
2023-08-03T17:44:24.700Z,101352.66
2023-08-03T17:46:53.960Z,101363.22
2023-08-03T17:49:22.199Z,101372.88
2023-08-03T17:51:50.410Z,101368.56
2023-08-03T17:54:19.528Z,101372.97
2023-08-03T17:56:48.024Z,101385.16
2023-08-03T17:59:17.860Z,101377.34
2023-08-03T18:01:46.233Z,101399.22
2023-08-03T18:04:14.326Z,101397.53
2023-08-03T18:06:42.916Z,101401.03
2023-08-03T18:09:12.165Z,101407.97
2023-08-03T18:11:40.395Z,101411.47
2023-08-03T18:14:08.805Z,101410.59
2023-08-03T18:16:38.534Z,101427.19
2023-08-03T18:19:06.879Z,101429.81
2023-08-03T18:21:35.179Z,101424.59
2023-08-03T18:24:03.341Z,101425.38
2023-08-03T18:26:31.861Z,101427.97
2023-08-03T18:29:00.191Z,101429.69
2023-08-03T18:31:28.484Z,101433.25
2023-08-03T18:33:58.356Z,101428.06
2023-08-03T18:36:26.869Z,101442.91
2023-08-03T18:38:55.683Z,101442.09
2023-08-03T18:41:25.451Z,101443.84
2023-08-03T18:43:54.138Z,101444.69
2023-08-03T18:46:23.892Z,101435.16
2023-08-03T18:48:52.015Z,101441.22
2023-08-03T18:51:23.511Z,101445.56
2023-08-03T18:53:53.551Z,101444.69
2023-08-03T18:56:23.616Z,101442.94
2023-08-03T18:58:52.413Z,101454.25
2023-08-03T19:01:20.774Z,101457.75
2023-08-03T19:03:53.146Z,101457.72
2023-08-03T19:06:23.322Z,101469.03
2023-08-03T19:08:51.695Z,101469.06
2023-08-03T19:11:19.839Z,101467.31
2023-08-03T19:13:48.306Z,101480.31
2023-08-03T19:16:16.707Z,101505.50
2023-08-03T19:18:45.037Z,101485.47
2023-08-03T19:21:13.598Z,101491.50
2023-08-03T19:23:43.524Z,101484.53
2023-08-03T19:26:14.060Z,101505.34
2023-08-03T19:28:42.330Z,101512.25
2023-08-03T19:31:10.494Z,101521.75
2023-08-03T19:33:38.930Z,101526.06
2023-08-03T19:36:07.207Z,101518.25
2023-08-03T19:38:35.504Z,101532.06
2023-08-03T19:41:06.576Z,101530.25
2023-08-03T19:43:34.815Z,101539.75
2023-08-03T19:46:09.566Z,101544.00
2023-08-03T19:48:37.941Z,101548.25
2023-08-03T20:06:31.829Z,101580.78
2023-08-03T20:09:00.296Z,101601.53
2023-08-03T20:11:30.108Z,101595.44
2023-08-03T20:13:58.335Z,101604.09
2023-08-03T20:21:29.217Z,101610.88
2023-08-03T20:23:57.962Z,101608.25
2023-08-03T20:26:35.200Z,101604.81
2023-08-03T20:29:06.334Z,101616.09
2023-08-03T20:31:35.197Z,101622.22
2023-08-03T20:36:35.016Z,101626.59
2023-08-03T20:49:09.895Z,101645.56
2023-08-03T20:51:38.197Z,101650.72
2023-08-03T20:54:38.569Z,101656.75
2023-08-03T20:56:54.525Z,101661.06
2023-08-03T20:59:24.151Z,101667.09
2023-08-03T21:01:53.921Z,101663.69
2023-08-03T21:04:26.739Z,101678.41
2023-08-03T21:06:57.713Z,101681.00
2023-08-03T21:09:25.920Z,101686.19
2023-08-03T21:11:54.175Z,101694.84
2023-08-03T21:14:23.832Z,101690.38
2023-08-03T21:16:52.123Z,101705.84
2023-08-03T21:19:20.295Z,101710.03
2023-08-03T21:21:49.574Z,101713.44
2023-08-03T21:24:17.895Z,101709.13
2023-08-03T21:26:46.732Z,101715.16
2023-08-03T21:29:15.110Z,101718.63
2023-08-03T21:34:17.704Z,101721.22
2023-08-03T21:36:46.149Z,101723.84
2023-08-03T21:39:14.782Z,101735.13
2023-08-03T21:41:42.927Z,101727.25
2023-08-03T21:44:11.120Z,101731.53
2023-08-03T21:46:39.443Z,101737.56
2023-08-03T21:49:09.143Z,101740.13
2023-08-03T21:51:37.322Z,101743.53
2023-08-03T21:54:05.712Z,101746.06
2023-08-03T21:56:33.919Z,101750.38
2023-08-03T21:59:02.322Z,101749.47
2023-08-03T22:01:30.545Z,101759.81
2023-08-03T22:03:58.872Z,101757.13
2023-08-03T22:06:29.814Z,101757.13
2023-08-03T22:08:58.003Z,101762.34
2023-08-03T22:11:26.225Z,101768.34
2023-08-03T22:14:03.911Z,101770.88
2023-08-03T22:16:32.688Z,101785.56
2023-08-03T22:19:00.887Z,101788.03
2023-08-03T22:21:38.836Z,101782.66
2023-08-03T22:24:07.639Z,101779.16
2023-08-03T22:26:36.609Z,101785.19
2023-08-03T22:29:08.239Z,101791.34
2023-08-03T22:31:36.545Z,101793.16
2023-08-03T22:34:04.656Z,101807.94
2023-08-03T22:36:34.243Z,101805.28
2023-08-03T22:39:02.665Z,101795.72
2023-08-03T22:41:34.187Z,101803.50
2023-08-03T22:44:02.395Z,101812.94
2023-08-03T22:46:30.692Z,101807.63
2023-08-03T22:48:58.946Z,101825.75
2023-08-03T22:51:26.994Z,101818.72
2023-08-03T22:53:56.561Z,101828.28
2023-08-03T22:56:24.709Z,101823.00
2023-08-03T22:58:52.880Z,101821.19
2023-08-03T23:01:22.535Z,101825.50
2023-08-03T23:03:51.151Z,101829.88
2023-08-03T23:06:21.453Z,101835.94
2023-08-03T23:08:49.870Z,101830.75
2023-08-03T23:11:19.500Z,101835.09
2023-08-03T23:13:47.725Z,101837.66
2023-08-03T23:16:19.476Z,101836.78
2023-08-03T23:18:47.875Z,101840.19
2023-08-03T23:21:16.182Z,101832.97
2023-08-03T23:23:44.374Z,101843.03
2023-08-03T23:26:13.635Z,101846.22
2023-08-03T23:28:43.888Z,101852.97
2023-08-03T23:31:12.196Z,101851.91
2023-08-03T23:33:40.890Z,101859.56
2023-08-03T23:36:09.462Z,101857.66
2023-08-03T23:38:37.626Z,101873.94
2023-08-03T23:41:06.033Z,101871.22
2023-08-03T23:43:34.498Z,101872.84
2023-08-03T23:46:04.293Z,101872.75
2023-08-03T23:48:32.484Z,101875.34
2023-08-03T23:51:00.623Z,101880.69
2023-08-03T23:53:28.691Z,101887.00
2023-08-03T23:55:56.900Z,101883.63
2023-08-03T23:58:25.196Z,101882.06
